sensor_id;sensor_type;location;lat;lon;timestamp;P1;durP1;ratioP1;P2;durP2;ratioP2
54388;SDS011;40975;50.390;8.640;2023-02-11T00:00:13;30.63;;;10.73;;
54388;SDS011;40975;50.390;8.640;2023-02-11T00:02:39;26.23;;;11.55;;
54388;SDS011;40975;50.390;8.640;2023-02-11T00:05:05;29.92;;;12.05;;
54388;SDS011;40975;50.390;8.640;2023-02-11T00:07:31;22.42;;;10.23;;
54388;SDS011;40975;50.390;8.640;2023-02-11T00:09:58;25.25;;;10.77;;
54388;SDS011;40975;50.390;8.640;2023-02-11T00:12:23;22.98;;;9.82;;
54388;SDS011;40975;50.390;8.640;2023-02-11T00:14:49;27.60;;;11.40;;
54388;SDS011;40975;50.390;8.640;2023-02-11T00:17:14;25.70;;;9.73;;
54388;SDS011;40975;50.390;8.640;2023-02-11T00:19:40;24.80;;;10.60;;
54388;SDS011;40975;50.390;8.640;2023-02-11T00:22:05;25.27;;;11.35;;
54388;SDS011;40975;50.390;8.640;2023-02-11T00:24:31;28.50;;;11.73;;
54388;SDS011;40975;50.390;8.640;2023-02-11T00:26:56;25.15;;;10.43;;
54388;SDS011;40975;50.390;8.640;2023-02-11T00:29:22;21.90;;;10.60;;
54388;SDS011;40975;50.390;8.640;2023-02-11T00:31:47;25.25;;;11.38;;
54388;SDS011;40975;50.390;8.640;2023-02-11T00:34:12;30.83;;;12.13;;
54388;SDS011;40975;50.390;8.640;2023-02-11T00:36:38;27.45;;;12.18;;
54388;SDS011;40975;50.390;8.640;2023-02-11T00:39:04;22.65;;;11.05;;
54388;SDS011;40975;50.390;8.640;2023-02-11T00:41:29;29.25;;;12.10;;
54388;SDS011;40975;50.390;8.640;2023-02-11T00:43:57;24.92;;;11.10;;
54388;SDS011;40975;50.390;8.640;2023-02-11T00:46:23;25.70;;;11.75;;
54388;SDS011;40975;50.390;8.640;2023-02-11T00:48:48;25.60;;;11.52;;
54388;SDS011;40975;50.390;8.640;2023-02-11T00:51:15;25.33;;;11.40;;
54388;SDS011;40975;50.390;8.640;2023-02-11T00:53:41;28.58;;;12.05;;
54388;SDS011;40975;50.390;8.640;2023-02-11T00:56:06;23.52;;;12.05;;
54388;SDS011;40975;50.390;8.640;2023-02-11T00:58:32;27.00;;;11.52;;
54388;SDS011;40975;50.390;8.640;2023-02-11T01:00:57;26.00;;;11.82;;
54388;SDS011;40975;50.390;8.640;2023-02-11T01:03:23;22.20;;;10.10;;
54388;SDS011;40975;50.390;8.640;2023-02-11T01:05:48;25.13;;;11.98;;
54388;SDS011;40975;50.390;8.640;2023-02-11T01:08:14;22.65;;;11.05;;
54388;SDS011;40975;50.390;8.640;2023-02-11T01:10:39;25.42;;;12.75;;
54388;SDS011;40975;50.390;8.640;2023-02-11T01:13:04;22.80;;;11.20;;
54388;SDS011;40975;50.390;8.640;2023-02-11T01:15:31;26.80;;;11.13;;
54388;SDS011;40975;50.390;8.640;2023-02-11T01:17:56;20.85;;;10.57;;
54388;SDS011;40975;50.390;8.640;2023-02-11T01:20:23;28.50;;;12.52;;
54388;SDS011;40975;50.390;8.640;2023-02-11T01:22:50;27.33;;;11.05;;
54388;SDS011;40975;50.390;8.640;2023-02-11T01:25:15;24.40;;;11.52;;
54388;SDS011;40975;50.390;8.640;2023-02-11T01:27:41;26.70;;;11.93;;
54388;SDS011;40975;50.390;8.640;2023-02-11T01:30:07;29.10;;;12.02;;
54388;SDS011;40975;50.390;8.640;2023-02-11T01:32:34;26.90;;;11.82;;
54388;SDS011;40975;50.390;8.640;2023-02-11T01:35:00;26.27;;;11.68;;
54388;SDS011;40975;50.390;8.640;2023-02-11T01:37:25;27.25;;;12.15;;
54388;SDS011;40975;50.390;8.640;2023-02-11T01:39:50;28.23;;;12.75;;
54388;SDS011;40975;50.390;8.640;2023-02-11T01:42:18;27.40;;;11.75;;
54388;SDS011;40975;50.390;8.640;2023-02-11T01:44:45;25.58;;;12.52;;
54388;SDS011;40975;50.390;8.640;2023-02-11T01:47:15;28.95;;;13.57;;
54388;SDS011;40975;50.390;8.640;2023-02-11T01:49:45;30.30;;;13.10;;
54388;SDS011;40975;50.390;8.640;2023-02-11T01:52:16;24.55;;;12.10;;
54388;SDS011;40975;50.390;8.640;2023-02-11T01:54:56;21.65;;;11.05;;
54388;SDS011;40975;50.390;8.640;2023-02-11T01:57:45;26.60;;;12.63;;
54388;SDS011;40975;50.390;8.640;2023-02-11T02:00:17;29.25;;;12.48;;
54388;SDS011;40975;50.390;8.640;2023-02-11T02:02:59;25.05;;;11.90;;
54388;SDS011;40975;50.390;8.640;2023-02-11T02:05:32;21.90;;;11.35;;
54388;SDS011;40975;50.390;8.640;2023-02-11T02:08:15;24.08;;;11.30;;
54388;SDS011;40975;50.390;8.640;2023-02-11T02:10:46;23.00;;;10.70;;
54388;SDS011;40975;50.390;8.640;2023-02-11T02:13:14;23.10;;;11.20;;
54388;SDS011;40975;50.390;8.640;2023-02-11T02:16:04;25.77;;;12.43;;
54388;SDS011;40975;50.390;8.640;2023-02-11T02:21:21;27.08;;;13.00;;
54388;SDS011;40975;50.390;8.640;2023-02-11T02:29:33;26.67;;;11.95;;
54388;SDS011;40975;50.390;8.640;2023-02-11T02:32:21;27.00;;;12.20;;
54388;SDS011;40975;50.390;8.640;2023-02-11T02:35:03;23.98;;;11.30;;
54388;SDS011;40975;50.390;8.640;2023-02-11T02:40:23;23.73;;;11.75;;
54388;SDS011;40975;50.390;8.640;2023-02-11T02:42:53;29.27;;;12.77;;
54388;SDS011;40975;50.390;8.640;2023-02-11T02:45:20;27.48;;;12.40;;
54388;SDS011;40975;50.390;8.640;2023-02-11T02:47:45;24.80;;;11.10;;
54388;SDS011;40975;50.390;8.640;2023-02-11T02:50:11;25.67;;;12.38;;
54388;SDS011;40975;50.390;8.640;2023-02-11T02:58:00;27.80;;;12.75;;
54388;SDS011;40975;50.390;8.640;2023-02-11T03:00:34;30.75;;;13.38;;
54388;SDS011;40975;50.390;8.640;2023-02-11T03:05:52;22.10;;;11.95;;
54388;SDS011;40975;50.390;8.640;2023-02-11T03:08:41;27.75;;;13.25;;
54388;SDS011;40975;50.390;8.640;2023-02-11T03:11:11;25.58;;;13.45;;
54388;SDS011;40975;50.390;8.640;2023-02-11T03:13:40;25.80;;;12.23;;
54388;SDS011;40975;50.390;8.640;2023-02-11T03:16:08;30.13;;;14.20;;
54388;SDS011;40975;50.390;8.640;2023-02-11T03:18:38;26.25;;;13.32;;
54388;SDS011;40975;50.390;8.640;2023-02-11T03:21:07;22.38;;;12.70;;
54388;SDS011;40975;50.390;8.640;2023-02-11T03:23:43;27.95;;;12.68;;
54388;SDS011;40975;50.390;8.640;2023-02-11T03:26:20;26.77;;;13.10;;
54388;SDS011;40975;50.390;8.640;2023-02-11T03:31:19;25.20;;;12.07;;
54388;SDS011;40975;50.390;8.640;2023-02-11T03:37:05;23.13;;;13.15;;
54388;SDS011;40975;50.390;8.640;2023-02-11T03:39:37;28.63;;;11.63;;
54388;SDS011;40975;50.390;8.640;2023-02-11T03:42:05;21.13;;;12.13;;
54388;SDS011;40975;50.390;8.640;2023-02-11T03:44:39;31.23;;;12.70;;
54388;SDS011;40975;50.390;8.640;2023-02-11T03:47:10;28.70;;;13.15;;
54388;SDS011;40975;50.390;8.640;2023-02-11T03:49:37;30.83;;;12.05;;
54388;SDS011;40975;50.390;8.640;2023-02-11T03:52:04;28.75;;;12.32;;
54388;SDS011;40975;50.390;8.640;2023-02-11T03:54:31;29.27;;;12.45;;
54388;SDS011;40975;50.390;8.640;2023-02-11T03:56:59;27.38;;;13.55;;
54388;SDS011;40975;50.390;8.640;2023-02-11T03:59:26;33.10;;;13.95;;
54388;SDS011;40975;50.390;8.640;2023-02-11T04:01:51;27.48;;;12.68;;
54388;SDS011;40975;50.390;8.640;2023-02-11T04:04:17;28.25;;;13.40;;
54388;SDS011;40975;50.390;8.640;2023-02-11T04:06:43;26.52;;;13.50;;
54388;SDS011;40975;50.390;8.640;2023-02-11T04:09:09;26.27;;;13.32;;
54388;SDS011;40975;50.390;8.640;2023-02-11T04:11:35;25.05;;;12.55;;
54388;SDS011;40975;50.390;8.640;2023-02-11T04:14:00;25.10;;;12.55;;
54388;SDS011;40975;50.390;8.640;2023-02-11T04:16:26;27.63;;;13.73;;
54388;SDS011;40975;50.390;8.640;2023-02-11T04:18:51;30.00;;;13.50;;
54388;SDS011;40975;50.390;8.640;2023-02-11T04:21:16;26.75;;;13.88;;
54388;SDS011;40975;50.390;8.640;2023-02-11T04:23:41;30.95;;;14.35;;
54388;SDS011;40975;50.390;8.640;2023-02-11T04:26:07;27.25;;;13.95;;
54388;SDS011;40975;50.390;8.640;2023-02-11T04:28:32;28.08;;;12.93;;
54388;SDS011;40975;50.390;8.640;2023-02-11T04:30:58;25.58;;;13.00;;
54388;SDS011;40975;50.390;8.640;2023-02-11T04:33:24;31.02;;;12.77;;
54388;SDS011;40975;50.390;8.640;2023-02-11T04:35:49;38.47;;;15.38;;
54388;SDS011;40975;50.390;8.640;2023-02-11T04:38:15;33.67;;;15.38;;
54388;SDS011;40975;50.390;8.640;2023-02-11T04:40:40;33.65;;;14.95;;
54388;SDS011;40975;50.390;8.640;2023-02-11T04:43:06;28.65;;;13.15;;
54388;SDS011;40975;50.390;8.640;2023-02-11T04:45:31;28.38;;;13.90;;
54388;SDS011;40975;50.390;8.640;2023-02-11T04:47:57;26.00;;;13.77;;
54388;SDS011;40975;50.390;8.640;2023-02-11T04:50:22;27.85;;;14.32;;
54388;SDS011;40975;50.390;8.640;2023-02-11T04:52:48;32.33;;;14.95;;
54388;SDS011;40975;50.390;8.640;2023-02-11T04:55:13;24.77;;;12.80;;
54388;SDS011;40975;50.390;8.640;2023-02-11T04:57:39;29.15;;;12.43;;
54388;SDS011;40975;50.390;8.640;2023-02-11T05:00:04;26.65;;;12.95;;
54388;SDS011;40975;50.390;8.640;2023-02-11T05:02:30;29.40;;;13.45;;
54388;SDS011;40975;50.390;8.640;2023-02-11T05:04:56;30.42;;;13.50;;
54388;SDS011;40975;50.390;8.640;2023-02-11T05:07:21;21.23;;;11.27;;
54388;SDS011;40975;50.390;8.640;2023-02-11T05:09:47;28.95;;;13.43;;
54388;SDS011;40975;50.390;8.640;2023-02-11T05:12:13;31.45;;;13.57;;
54388;SDS011;40975;50.390;8.640;2023-02-11T05:14:39;27.80;;;14.65;;
54388;SDS011;40975;50.390;8.640;2023-02-11T05:17:04;27.88;;;13.70;;
54388;SDS011;40975;50.390;8.640;2023-02-11T05:19:29;27.88;;;14.15;;
54388;SDS011;40975;50.390;8.640;2023-02-11T05:21:56;28.05;;;13.95;;
54388;SDS011;40975;50.390;8.640;2023-02-11T05:24:21;22.33;;;13.07;;
54388;SDS011;40975;50.390;8.640;2023-02-11T05:26:46;26.45;;;13.10;;
54388;SDS011;40975;50.390;8.640;2023-02-11T05:29:12;28.95;;;13.75;;
54388;SDS011;40975;50.390;8.640;2023-02-11T05:31:37;23.63;;;13.25;;
54388;SDS011;40975;50.390;8.640;2023-02-11T05:34:02;24.67;;;12.68;;
54388;SDS011;40975;50.390;8.640;2023-02-11T05:36:28;28.75;;;14.13;;
54388;SDS011;40975;50.390;8.640;2023-02-11T05:38:54;29.40;;;13.43;;
54388;SDS011;40975;50.390;8.640;2023-02-11T05:41:19;29.67;;;13.65;;
54388;SDS011;40975;50.390;8.640;2023-02-11T05:43:46;31.67;;;14.20;;
54388;SDS011;40975;50.390;8.640;2023-02-11T05:46:14;24.38;;;12.57;;
54388;SDS011;40975;50.390;8.640;2023-02-11T05:48:40;26.75;;;12.38;;
54388;SDS011;40975;50.390;8.640;2023-02-11T05:51:06;23.77;;;11.68;;
54388;SDS011;40975;50.390;8.640;2023-02-11T05:53:31;27.20;;;13.93;;
54388;SDS011;40975;50.390;8.640;2023-02-11T05:55:56;26.85;;;12.85;;
54388;SDS011;40975;50.390;8.640;2023-02-11T05:58:22;27.58;;;13.73;;
54388;SDS011;40975;50.390;8.640;2023-02-11T06:00:47;23.13;;;12.45;;
54388;SDS011;40975;50.390;8.640;2023-02-11T06:03:12;30.63;;;13.77;;
54388;SDS011;40975;50.390;8.640;2023-02-11T06:05:38;23.05;;;12.82;;
54388;SDS011;40975;50.390;8.640;2023-02-11T06:08:03;24.88;;;13.20;;
54388;SDS011;40975;50.390;8.640;2023-02-11T06:10:29;28.50;;;13.60;;
54388;SDS011;40975;50.390;8.640;2023-02-11T06:12:54;27.77;;;13.77;;
54388;SDS011;40975;50.390;8.640;2023-02-11T06:15:19;23.92;;;12.73;;
54388;SDS011;40975;50.390;8.640;2023-02-11T06:17:44;27.35;;;13.75;;
54388;SDS011;40975;50.390;8.640;2023-02-11T06:20:10;23.40;;;11.75;;
54388;SDS011;40975;50.390;8.640;2023-02-11T06:22:36;27.73;;;12.75;;
54388;SDS011;40975;50.390;8.640;2023-02-11T06:25:01;26.48;;;13.20;;
54388;SDS011;40975;50.390;8.640;2023-02-11T06:27:27;32.28;;;13.48;;
54388;SDS011;40975;50.390;8.640;2023-02-11T06:29:53;27.27;;;13.57;;
54388;SDS011;40975;50.390;8.640;2023-02-11T06:32:18;30.67;;;13.65;;
54388;SDS011;40975;50.390;8.640;2023-02-11T06:34:44;26.60;;;13.48;;
54388;SDS011;40975;50.390;8.640;2023-02-11T06:37:10;24.90;;;12.77;;
54388;SDS011;40975;50.390;8.640;2023-02-11T06:39:35;31.40;;;12.70;;
54388;SDS011;40975;50.390;8.640;2023-02-11T06:42:00;29.15;;;13.52;;
54388;SDS011;40975;50.390;8.640;2023-02-11T06:44:26;23.38;;;13.02;;
54388;SDS011;40975;50.390;8.640;2023-02-11T06:46:51;26.02;;;12.82;;
54388;SDS011;40975;50.390;8.640;2023-02-11T06:49:16;27.23;;;12.88;;
54388;SDS011;40975;50.390;8.640;2023-02-11T06:51:42;21.38;;;11.02;;
54388;SDS011;40975;50.390;8.640;2023-02-11T06:54:07;25.58;;;13.20;;
54388;SDS011;40975;50.390;8.640;2023-02-11T06:56:32;26.60;;;12.13;;
54388;SDS011;40975;50.390;8.640;2023-02-11T06:58:58;29.75;;;14.05;;
54388;SDS011;40975;50.390;8.640;2023-02-11T07:01:24;26.70;;;13.52;;
54388;SDS011;40975;50.390;8.640;2023-02-11T07:03:51;29.83;;;13.77;;
54388;SDS011;40975;50.390;8.640;2023-02-11T07:06:18;29.40;;;14.13;;
54388;SDS011;40975;50.390;8.640;2023-02-11T07:08:45;26.98;;;13.00;;
54388;SDS011;40975;50.390;8.640;2023-02-11T07:11:12;25.88;;;12.80;;
54388;SDS011;40975;50.390;8.640;2023-02-11T07:13:42;26.65;;;12.30;;
54388;SDS011;40975;50.390;8.640;2023-02-11T07:16:08;27.70;;;13.65;;
54388;SDS011;40975;50.390;8.640;2023-02-11T07:18:36;25.30;;;13.38;;
54388;SDS011;40975;50.390;8.640;2023-02-11T07:21:05;26.92;;;13.88;;
54388;SDS011;40975;50.390;8.640;2023-02-11T07:23:32;28.17;;;14.27;;
54388;SDS011;40975;50.390;8.640;2023-02-11T07:26:01;32.67;;;15.50;;
54388;SDS011;40975;50.390;8.640;2023-02-11T07:28:30;29.67;;;14.70;;
54388;SDS011;40975;50.390;8.640;2023-02-11T07:30:56;27.65;;;14.15;;
54388;SDS011;40975;50.390;8.640;2023-02-11T07:33:21;28.65;;;13.57;;
54388;SDS011;40975;50.390;8.640;2023-02-11T07:35:46;29.50;;;13.98;;
54388;SDS011;40975;50.390;8.640;2023-02-11T07:38:12;33.13;;;14.98;;
54388;SDS011;40975;50.390;8.640;2023-02-11T07:40:37;34.58;;;14.98;;
54388;SDS011;40975;50.390;8.640;2023-02-11T07:43:03;35.22;;;15.20;;
54388;SDS011;40975;50.390;8.640;2023-02-11T07:45:28;30.08;;;15.43;;
54388;SDS011;40975;50.390;8.640;2023-02-11T07:47:53;30.02;;;14.68;;
54388;SDS011;40975;50.390;8.640;2023-02-11T07:50:19;31.73;;;15.20;;
54388;SDS011;40975;50.390;8.640;2023-02-11T07:52:44;26.98;;;14.25;;
54388;SDS011;40975;50.390;8.640;2023-02-11T07:55:09;30.00;;;15.00;;
54388;SDS011;40975;50.390;8.640;2023-02-11T07:57:35;31.63;;;15.75;;
54388;SDS011;40975;50.390;8.640;2023-02-11T08:00:01;30.17;;;15.18;;
54388;SDS011;40975;50.390;8.640;2023-02-11T08:02:35;37.75;;;18.92;;
54388;SDS011;40975;50.390;8.640;2023-02-11T08:05:01;34.55;;;18.58;;
54388;SDS011;40975;50.390;8.640;2023-02-11T08:07:26;40.83;;;17.80;;
54388;SDS011;40975;50.390;8.640;2023-02-11T08:09:53;46.17;;;18.83;;
54388;SDS011;40975;50.390;8.640;2023-02-11T08:12:19;37.30;;;18.08;;
54388;SDS011;40975;50.390;8.640;2023-02-11T08:14:44;34.50;;;17.80;;
54388;SDS011;40975;50.390;8.640;2023-02-11T08:17:10;41.35;;;17.65;;
54388;SDS011;40975;50.390;8.640;2023-02-11T08:19:35;37.83;;;18.73;;
54388;SDS011;40975;50.390;8.640;2023-02-11T08:22:01;43.22;;;18.83;;
54388;SDS011;40975;50.390;8.640;2023-02-11T08:24:26;43.33;;;18.50;;
54388;SDS011;40975;50.390;8.640;2023-02-11T08:26:51;42.40;;;19.25;;
54388;SDS011;40975;50.390;8.640;2023-02-11T08:29:17;38.00;;;18.90;;
54388;SDS011;40975;50.390;8.640;2023-02-11T08:31:43;42.33;;;19.38;;
54388;SDS011;40975;50.390;8.640;2023-02-11T08:34:10;37.85;;;18.50;;
54388;SDS011;40975;50.390;8.640;2023-02-11T08:36:39;35.03;;;16.63;;
54388;SDS011;40975;50.390;8.640;2023-02-11T08:39:11;40.65;;;18.75;;
54388;SDS011;40975;50.390;8.640;2023-02-11T08:41:38;46.45;;;21.15;;
54388;SDS011;40975;50.390;8.640;2023-02-11T08:44:04;40.78;;;20.00;;
54388;SDS011;40975;50.390;8.640;2023-02-11T08:46:29;39.25;;;18.95;;
54388;SDS011;40975;50.390;8.640;2023-02-11T08:48:55;39.22;;;19.40;;
54388;SDS011;40975;50.390;8.640;2023-02-11T08:51:21;43.70;;;20.42;;
54388;SDS011;40975;50.390;8.640;2023-02-11T08:53:49;49.35;;;19.88;;
54388;SDS011;40975;50.390;8.640;2023-02-11T08:56:15;38.75;;;19.85;;
54388;SDS011;40975;50.390;8.640;2023-02-11T08:58:42;43.58;;;20.60;;
54388;SDS011;40975;50.390;8.640;2023-02-11T09:01:12;39.97;;;19.70;;
54388;SDS011;40975;50.390;8.640;2023-02-11T09:03:39;37.03;;;19.20;;
54388;SDS011;40975;50.390;8.640;2023-02-11T09:06:05;41.83;;;19.42;;
54388;SDS011;40975;50.390;8.640;2023-02-11T09:08:34;42.38;;;20.00;;
54388;SDS011;40975;50.390;8.640;2023-02-11T09:11:01;39.28;;;18.98;;
54388;SDS011;40975;50.390;8.640;2023-02-11T09:13:26;34.53;;;18.50;;
54388;SDS011;40975;50.390;8.640;2023-02-11T09:15:52;41.17;;;21.40;;
54388;SDS011;40975;50.390;8.640;2023-02-11T09:18:17;36.60;;;18.58;;
54388;SDS011;40975;50.390;8.640;2023-02-11T09:20:42;36.83;;;18.60;;
54388;SDS011;40975;50.390;8.640;2023-02-11T09:23:08;37.65;;;19.70;;
54388;SDS011;40975;50.390;8.640;2023-02-11T09:25:33;37.05;;;18.98;;
54388;SDS011;40975;50.390;8.640;2023-02-11T09:27:59;40.83;;;18.90;;
54388;SDS011;40975;50.390;8.640;2023-02-11T09:30:24;38.80;;;19.55;;
54388;SDS011;40975;50.390;8.640;2023-02-11T09:32:50;39.10;;;19.10;;
54388;SDS011;40975;50.390;8.640;2023-02-11T09:35:15;44.58;;;21.02;;
54388;SDS011;40975;50.390;8.640;2023-02-11T09:37:40;35.80;;;19.63;;
54388;SDS011;40975;50.390;8.640;2023-02-11T09:40:06;37.10;;;19.85;;
54388;SDS011;40975;50.390;8.640;2023-02-11T09:42:41;38.75;;;19.10;;
54388;SDS011;40975;50.390;8.640;2023-02-11T09:45:12;39.70;;;19.58;;
54388;SDS011;40975;50.390;8.640;2023-02-11T09:48:01;37.95;;;19.63;;
54388;SDS011;40975;50.390;8.640;2023-02-11T09:50:38;36.78;;;19.13;;
54388;SDS011;40975;50.390;8.640;2023-02-11T09:55:48;32.72;;;15.30;;
54388;SDS011;40975;50.390;8.640;2023-02-11T09:58:27;28.95;;;10.90;;
54388;SDS011;40975;50.390;8.640;2023-02-11T10:06:46;23.17;;;11.85;;
54388;SDS011;40975;50.390;8.640;2023-02-11T10:12:02;25.63;;;11.43;;
54388;SDS011;40975;50.390;8.640;2023-02-11T10:20:00;26.30;;;12.52;;
54388;SDS011;40975;50.390;8.640;2023-02-11T10:22:49;22.65;;;10.57;;
54388;SDS011;40975;50.390;8.640;2023-02-11T10:25:23;21.83;;;10.73;;
54388;SDS011;40975;50.390;8.640;2023-02-11T10:27:57;21.08;;;11.38;;
54388;SDS011;40975;50.390;8.640;2023-02-11T10:30:31;26.95;;;11.18;;
54388;SDS011;40975;50.390;8.640;2023-02-11T10:33:19;23.88;;;10.98;;
54388;SDS011;40975;50.390;8.640;2023-02-11T10:35:52;21.52;;;10.07;;
54388;SDS011;40975;50.390;8.640;2023-02-11T10:38:17;23.15;;;10.45;;
54388;SDS011;40975;50.390;8.640;2023-02-11T10:40:43;25.40;;;11.45;;
54388;SDS011;40975;50.390;8.640;2023-02-11T10:43:09;20.15;;;9.70;;
54388;SDS011;40975;50.390;8.640;2023-02-11T10:45:40;20.65;;;9.48;;
54388;SDS011;40975;50.390;8.640;2023-02-11T10:53:46;23.33;;;10.18;;
54388;SDS011;40975;50.390;8.640;2023-02-11T10:56:20;21.38;;;10.27;;
54388;SDS011;40975;50.390;8.640;2023-02-11T10:58:53;23.50;;;10.68;;
54388;SDS011;40975;50.390;8.640;2023-02-11T11:01:22;23.60;;;10.23;;
54388;SDS011;40975;50.390;8.640;2023-02-11T11:03:49;22.67;;;10.32;;
54388;SDS011;40975;50.390;8.640;2023-02-11T11:06:16;21.30;;;10.32;;
54388;SDS011;40975;50.390;8.640;2023-02-11T11:08:54;19.80;;;10.10;;
54388;SDS011;40975;50.390;8.640;2023-02-11T11:11:20;24.15;;;10.45;;
54388;SDS011;40975;50.390;8.640;2023-02-11T11:13:59;18.73;;;9.68;;
54388;SDS011;40975;50.390;8.640;2023-02-11T11:16:30;19.55;;;9.45;;
54388;SDS011;40975;50.390;8.640;2023-02-11T11:21:40;25.50;;;10.30;;
54388;SDS011;40975;50.390;8.640;2023-02-11T11:24:27;21.48;;;10.05;;
54388;SDS011;40975;50.390;8.640;2023-02-11T11:26:58;19.08;;;9.30;;
54388;SDS011;40975;50.390;8.640;2023-02-11T11:29:28;17.92;;;8.68;;
54388;SDS011;40975;50.390;8.640;2023-02-11T11:31:56;20.45;;;8.82;;
54388;SDS011;40975;50.390;8.640;2023-02-11T11:34:32;19.33;;;8.73;;
54388;SDS011;40975;50.390;8.640;2023-02-11T11:37:09;22.13;;;8.73;;
54388;SDS011;40975;50.390;8.640;2023-02-11T11:39:57;20.80;;;8.60;;
54388;SDS011;40975;50.390;8.640;2023-02-11T11:44:57;18.88;;;9.88;;
54388;SDS011;40975;50.390;8.640;2023-02-11T11:47:28;17.67;;;9.05;;
54388;SDS011;40975;50.390;8.640;2023-02-11T11:50:09;22.33;;;10.43;;
54388;SDS011;40975;50.390;8.640;2023-02-11T11:52:49;28.23;;;10.38;;
54388;SDS011;40975;50.390;8.640;2023-02-11T11:55:21;21.35;;;9.68;;
54388;SDS011;40975;50.390;8.640;2023-02-11T11:57:50;21.55;;;10.18;;
54388;SDS011;40975;50.390;8.640;2023-02-11T12:00:20;24.20;;;9.18;;
54388;SDS011;40975;50.390;8.640;2023-02-11T12:03:13;18.55;;;8.63;;
54388;SDS011;40975;50.390;8.640;2023-02-11T12:06:11;23.40;;;10.35;;
54388;SDS011;40975;50.390;8.640;2023-02-11T12:14:02;21.20;;;9.77;;
54388;SDS011;40975;50.390;8.640;2023-02-11T12:16:35;19.00;;;8.77;;
54388;SDS011;40975;50.390;8.640;2023-02-11T12:24:41;20.08;;;9.63;;
54388;SDS011;40975;50.390;8.640;2023-02-11T12:38:46;16.58;;;7.32;;
54388;SDS011;40975;50.390;8.640;2023-02-11T12:44:26;15.05;;;8.18;;
54388;SDS011;40975;50.390;8.640;2023-02-11T12:47:39;16.10;;;7.25;;
54388;SDS011;40975;50.390;8.640;2023-02-11T12:50:23;19.92;;;9.40;;
54388;SDS011;40975;50.390;8.640;2023-02-11T12:55:47;17.88;;;7.35;;
54388;SDS011;40975;50.390;8.640;2023-02-11T12:58:20;15.75;;;7.88;;
54388;SDS011;40975;50.390;8.640;2023-02-11T13:00:53;17.42;;;6.82;;
54388;SDS011;40975;50.390;8.640;2023-02-11T13:03:23;17.45;;;8.48;;
54388;SDS011;40975;50.390;8.640;2023-02-11T13:05:57;15.25;;;7.18;;
54388;SDS011;40975;50.390;8.640;2023-02-11T13:08:32;16.50;;;7.57;;
54388;SDS011;40975;50.390;8.640;2023-02-11T13:11:16;14.02;;;7.32;;
54388;SDS011;40975;50.390;8.640;2023-02-11T13:14:03;14.52;;;6.60;;
54388;SDS011;40975;50.390;8.640;2023-02-11T13:27:22;14.73;;;7.40;;
54388;SDS011;40975;50.390;8.640;2023-02-11T13:30:19;15.13;;;7.50;;
54388;SDS011;40975;50.390;8.640;2023-02-11T13:37:50;12.55;;;6.60;;
54388;SDS011;40975;50.390;8.640;2023-02-11T13:40:21;14.95;;;7.22;;
54388;SDS011;40975;50.390;8.640;2023-02-11T13:42:50;15.43;;;6.45;;
54388;SDS011;40975;50.390;8.640;2023-02-11T13:46:03;16.25;;;7.05;;
54388;SDS011;40975;50.390;8.640;2023-02-11T13:48:19;15.93;;;7.10;;
54388;SDS011;40975;50.390;8.640;2023-02-11T13:50:50;16.50;;;7.70;;
54388;SDS011;40975;50.390;8.640;2023-02-11T13:53:18;14.80;;;6.95;;
54388;SDS011;40975;50.390;8.640;2023-02-11T13:55:44;14.48;;;6.90;;
54388;SDS011;40975;50.390;8.640;2023-02-11T14:11:52;17.77;;;7.97;;
54388;SDS011;40975;50.390;8.640;2023-02-11T14:14:56;16.45;;;7.32;;
54388;SDS011;40975;50.390;8.640;2023-02-11T14:17:26;20.70;;;7.30;;
54388;SDS011;40975;50.390;8.640;2023-02-11T14:19:55;15.48;;;6.95;;
54388;SDS011;40975;50.390;8.640;2023-02-11T14:24:56;15.25;;;6.70;;
54388;SDS011;40975;50.390;8.640;2023-02-11T14:27:29;13.93;;;6.70;;
54388;SDS011;40975;50.390;8.640;2023-02-11T14:30:08;16.80;;;6.70;;
54388;SDS011;40975;50.390;8.640;2023-02-11T14:32:45;15.82;;;6.82;;
54388;SDS011;40975;50.390;8.640;2023-02-11T14:35:27;16.00;;;7.82;;
54388;SDS011;40975;50.390;8.640;2023-02-11T14:40:42;14.90;;;6.90;;
54388;SDS011;40975;50.390;8.640;2023-02-11T14:43:25;16.30;;;7.05;;
54388;SDS011;40975;50.390;8.640;2023-02-11T14:45:55;14.98;;;6.88;;
54388;SDS011;40975;50.390;8.640;2023-02-11T14:48:26;15.93;;;8.05;;
54388;SDS011;40975;50.390;8.640;2023-02-11T14:51:30;13.45;;;6.70;;
54388;SDS011;40975;50.390;8.640;2023-02-11T14:53:58;16.85;;;6.78;;
54388;SDS011;40975;50.390;8.640;2023-02-11T14:56:30;14.43;;;7.10;;
54388;SDS011;40975;50.390;8.640;2023-02-11T14:58:55;16.00;;;6.72;;
54388;SDS011;40975;50.390;8.640;2023-02-11T15:01:30;16.70;;;7.65;;
54388;SDS011;40975;50.390;8.640;2023-02-11T15:04:03;15.55;;;6.75;;
54388;SDS011;40975;50.390;8.640;2023-02-11T15:06:34;17.77;;;7.18;;
54388;SDS011;40975;50.390;8.640;2023-02-11T15:09:16;15.57;;;6.75;;
54388;SDS011;40975;50.390;8.640;2023-02-11T15:11:45;18.38;;;7.28;;
54388;SDS011;40975;50.390;8.640;2023-02-11T15:14:18;15.52;;;7.10;;
54388;SDS011;40975;50.390;8.640;2023-02-11T15:16:48;18.52;;;7.57;;
54388;SDS011;40975;50.390;8.640;2023-02-11T15:21:48;16.58;;;7.20;;
54388;SDS011;40975;50.390;8.640;2023-02-11T15:27:00;19.30;;;8.07;;
54388;SDS011;40975;50.390;8.640;2023-02-11T15:29:38;16.05;;;7.82;;
54388;SDS011;40975;50.390;8.640;2023-02-11T15:32:10;16.75;;;8.90;;
54388;SDS011;40975;50.390;8.640;2023-02-11T15:34:38;18.10;;;8.02;;
54388;SDS011;40975;50.390;8.640;2023-02-11T15:37:04;18.70;;;7.35;;
54388;SDS011;40975;50.390;8.640;2023-02-11T15:44:48;15.10;;;7.57;;
54388;SDS011;40975;50.390;8.640;2023-02-11T15:47:31;17.63;;;7.63;;
54388;SDS011;40975;50.390;8.640;2023-02-11T15:49:56;19.83;;;7.75;;
54388;SDS011;40975;50.390;8.640;2023-02-11T15:52:23;23.58;;;8.45;;
54388;SDS011;40975;50.390;8.640;2023-02-11T15:54:51;17.52;;;8.68;;
54388;SDS011;40975;50.390;8.640;2023-02-11T15:57:18;19.70;;;8.98;;
54388;SDS011;40975;50.390;8.640;2023-02-11T15:59:46;18.35;;;8.27;;
54388;SDS011;40975;50.390;8.640;2023-02-11T16:02:18;19.88;;;9.23;;
54388;SDS011;40975;50.390;8.640;2023-02-11T16:04:58;19.40;;;9.07;;
54388;SDS011;40975;50.390;8.640;2023-02-11T16:15:45;20.65;;;9.25;;
54388;SDS011;40975;50.390;8.640;2023-02-11T16:18:24;20.75;;;9.02;;
54388;SDS011;40975;50.390;8.640;2023-02-11T16:20:52;21.48;;;9.80;;
54388;SDS011;40975;50.390;8.640;2023-02-11T16:23:22;21.70;;;9.65;;
54388;SDS011;40975;50.390;8.640;2023-02-11T16:25:54;26.60;;;10.70;;
54388;SDS011;40975;50.390;8.640;2023-02-11T16:28:23;20.80;;;8.95;;
54388;SDS011;40975;50.390;8.640;2023-02-11T16:30:53;22.20;;;10.27;;
54388;SDS011;40975;50.390;8.640;2023-02-11T16:33:20;25.02;;;10.52;;
54388;SDS011;40975;50.390;8.640;2023-02-11T16:35:45;24.67;;;10.27;;
54388;SDS011;40975;50.390;8.640;2023-02-11T16:38:12;22.50;;;10.13;;
54388;SDS011;40975;50.390;8.640;2023-02-11T16:40:38;22.88;;;10.45;;
54388;SDS011;40975;50.390;8.640;2023-02-11T16:43:04;20.63;;;9.68;;
54388;SDS011;40975;50.390;8.640;2023-02-11T16:45:30;26.90;;;10.90;;
54388;SDS011;40975;50.390;8.640;2023-02-11T16:47:55;29.13;;;11.05;;
54388;SDS011;40975;50.390;8.640;2023-02-11T16:50:22;21.33;;;9.82;;
54388;SDS011;40975;50.390;8.640;2023-02-11T16:52:49;26.98;;;10.43;;